FLG2937 Gear Problem

Spoolingbyu

On the can with WSIBS
Joined
Dec 23, 2005
Posts
59
Total Time
1+
Pinnacle flight 2937 having a "gear problem" after departure. DTW-ABE, sounds like instead of returning to metro they are diverting to CLE to do a visual approach and "no-flap" landing on 6L.

http://flightaware.com/live/flight/FLG2937


[FONT=Monospace,Courier]KDTW 060453Z 03016G21KT 2SM -SN BR BKN004 OVC010 01/00 A2951 RMK AO2 TWR VIS 2 1/2

[/FONT][FONT=Monospace,Courier]KCLE 060451Z 02011KT 10SM -RA BKN050 OVC065 05/02 A2946[/FONT]
 

DoinTime

Well-known member
Joined
Nov 27, 2001
Posts
2,523
Total Time
6000+
You sure it ain't a flap problem?
 

siucavflight

Back from the forsaken
Joined
Jul 30, 2003
Posts
3,512
Total Time
5000
Oh boy, oh boy! Deets please!!!!!!!!!!!!!!!!!!!!!!!!!
 

spudskier

Well-known member
Joined
Dec 29, 2004
Posts
565
Total Time
<enuf
and now for something completely different... (still waiting)
 

BcPilot99

Well-known member
Joined
Mar 28, 2006
Posts
263
Total Time
+5,000
and now for something completely different... (still waiting)
*Peter Griffin Voice* And now ladies and gentleman Mr. Conway Twitty
 

say again

I love her ARSE!!!!
Joined
Mar 14, 2005
Posts
4,006
Total Time
5500
OMG!!! Breaking news.
 

Flyprdu

You Want This, Don't You.
Joined
Nov 3, 2002
Posts
1,541
Total Time
Pssh..
I heard it was both a gear disagree and flap fail on T/O.
 

PeanuckleCRJ

Hurrrrrrrr
Joined
Jul 21, 2004
Posts
1,684
Total Time
mucho
The FO forgot his hair gel. They had to cover the problem up with something.
 

J.Otto

Well-known member
Joined
Aug 1, 2005
Posts
1,524
Total Time
.
*Peter Griffin Voice* And now ladies and gentleman Mr. Conway Twitty
i've actually rewound the twitty clips. incredibly weird looking guy.
 

crj567

Well-known member
Joined
Sep 20, 2008
Posts
2,052
We are talking about Pinnacle.. You really do have to grade on a curve here....
 

siucavflight

Back from the forsaken
Joined
Jul 30, 2003
Posts
3,512
Total Time
5000
Top